Mercedes, Texas
Current Conditions -  °F | °C
As of 11:35 AM on Tuesday 21 Oct 2014 (Local Time) from KT65 Reporting Station
Scattered Clouds Scattered Clouds  
Wind Chill: 80°   Ceiling: Unl
Heat Index: 83°   Visibility: 7mi
Dew Point: 70°   Wind: 8mph
Humidity: 73%   Direction: 20°NNE
Pressure: 29.97"   Gusts: NA
Location:  26.15°N, 97.91°W
Report Text: KT65 211635Z AUTO 02007KT 7SM SCT026 SCT042 SCT050 26/21 A2997 RMK AO2 T02640213
Loading
Personal Weather Stations






























Interactive Weather Map
Tropical Storm Tracking
New forecast layout! Learn more

10-Day Weather Forecast

Advertisements
Track Severe Weather on mobile